Time;durP1;ratioP1;P1;durP2;ratioP2;P2;SDS_P1;SDS_P2;PMS_P1;PMS_P2;Temp;Humidity;BMP_temperature;BMP_pressure;BME280_temperature;BME280_humidity;BME280_pressure;Samples;Min_cycle;Max_cycle;Signal;HPM_P1;HPM_P2
2022/06/07 00:01:24;;;;;;;2.83;2.60;;;20.10;94.60;;;;;;5054434;28;20531;-70
2022/06/07 00:03:52;;;;;;;2.83;2.63;;;20.00;94.50;;;;;;5054348;28;20446;-70
2022/06/07 00:06:19;;;;;;;2.53;2.33;;;20.00;94.80;;;;;;5054471;28;20526;-69
2022/06/07 00:08:46;;;;;;;2.83;2.60;;;20.00;94.80;;;;;;5054015;28;20587;-69
2022/06/07 00:11:13;;;;;;;3.10;2.90;;;20.00;95.10;;;;;;5054177;28;20449;-69
2022/06/07 00:13:40;;;;;;;2.80;2.70;;;20.00;95.00;;;;;;5054016;28;20536;-69
2022/06/07 00:16:07;;;;;;;2.43;2.23;;;20.00;95.00;;;;;;5054296;28;20783;-69
2022/06/07 00:18:34;;;;;;;2.53;2.43;;;20.00;95.10;;;;;;5054163;28;20553;-69
2022/06/07 00:21:02;;;;;;;2.70;2.33;;;20.00;95.00;;;;;;5053929;28;20542;-69
2022/06/07 00:23:29;;;;;;;3.97;2.60;;;20.00;94.80;;;;;;5054045;28;20542;-69
2022/06/07 00:25:56;;;;;;;2.50;2.30;;;19.90;95.00;;;;;;5054136;28;20440;-69
2022/06/07 00:28:23;;;;;;;2.77;2.63;;;20.00;95.10;;;;;;5053941;28;20555;-69
2022/06/07 00:30:51;;;;;;;3.00;2.80;;;20.00;95.00;;;;;;5053845;28;20454;-69
2022/06/07 00:33:19;;;;;;;3.67;3.40;;;20.00;95.30;;;;;;5053687;28;20498;-69
2022/06/07 00:35:46;;;;;;;2.87;2.67;;;19.90;95.30;;;;;;5053886;28;20526;-69
2022/06/07 00:38:15;;;;;;;2.90;2.70;;;19.90;95.30;;;;;;5053765;28;20526;-70
2022/06/07 00:40:42;;;;;;;2.97;2.70;;;19.90;95.60;;;;;;5053641;28;20535;-69
2022/06/07 00:43:10;;;;;;;2.47;2.30;;;19.90;95.60;;;;;;5053581;28;20850;-69
2022/06/07 00:45:38;;;;;;;2.50;2.40;;;20.00;95.80;;;;;;5053795;28;20525;-69
2022/06/07 00:48:06;;;;;;;3.33;2.63;;;19.90;95.40;;;;;;5053625;28;20530;-70
2022/06/07 00:50:41;;;;;;;3.10;2.70;;;19.90;95.30;;;;;;5053679;28;20569;-70
2022/06/07 00:53:21;;;;;;;2.73;2.53;;;19.90;95.70;;;;;;5053355;28;20451;-69
2022/06/07 00:55:48;;;;;;;2.40;2.20;;;19.80;95.70;;;;;;5053665;28;20546;-69
2022/06/07 00:58:15;;;;;;;2.80;2.60;;;19.80;95.80;;;;;;5053465;28;20518;-70
2022/06/07 01:00:41;;;;;;;2.50;2.40;;;19.70;95.90;;;;;;5053579;28;20548;-70
2022/06/07 01:03:09;;;;;;;2.50;2.30;;;19.70;96.10;;;;;;5053410;28;20531;-70
2022/06/07 01:05:35;;;;;;;2.80;2.43;;;19.60;97.60;;;;;;5053526;28;20539;-70
2022/06/07 01:10:54;;;;;;;2.40;2.30;;;19.60;95.50;;;;;;5053333;28;20478;-69
2022/06/07 01:13:23;;;;;;;2.40;2.20;;;19.50;95.50;;;;;;5053187;28;20533;-69
2022/06/07 01:15:51;;;;;;;2.00;1.90;;;19.40;96.30;;;;;;5053453;28;20534;-69
2022/06/07 01:18:18;;;;;;;2.28;2.10;;;19.20;95.70;;;;;;5053341;28;20447;-69
2022/06/07 01:20:45;;;;;;;2.20;2.00;;;19.10;96.30;;;;;;5053470;28;20301;-69
2022/06/07 01:23:13;;;;;;;1.93;1.83;;;19.20;96.40;;;;;;5053115;28;20541;-69
2022/06/07 01:25:40;;;;;;;2.30;2.10;;;19.20;95.80;;;;;;5053343;28;20451;-69
2022/06/07 01:28:07;;;;;;;2.35;2.25;;;19.20;96.40;;;;;;5053241;28;20486;-69
2022/06/07 01:30:34;;;;;;;2.42;2.30;;;19.10;97.80;;;;;;5053034;28;20223;-69
2022/06/07 01:33:01;;;;;;;2.30;2.15;;;19.10;98.50;;;;;;5053041;28;20291;-69
2022/06/07 01:35:28;;;;;;;2.10;2.00;;;19.10;99.20;;;;;;5053257;28;20298;-70
2022/06/07 01:37:55;;;;;;;2.73;2.47;;;19.10;98.70;;;;;;5053269;28;20299;-69
2022/06/07 01:43:07;;;;;;;2.95;2.50;;;19.10;97.90;;;;;;5053041;28;20317;-70
2022/06/07 01:45:34;;;;;;;2.30;2.10;;;18.90;97.80;;;;;;5053226;28;20208;-69
2022/06/07 01:48:01;;;;;;;1.90;1.80;;;18.80;97.90;;;;;;5053162;28;20308;-69
2022/06/07 01:50:27;;;;;;;1.75;1.65;;;18.80;97.40;;;;;;5053023;28;20654;-69
2022/06/07 01:52:54;;;;;;;2.05;1.95;;;18.80;97.70;;;;;;5052546;28;20215;-70
2022/06/07 01:55:23;;;;;;;1.85;1.75;;;18.80;98.10;;;;;;5053518;28;20310;-69
2022/06/07 01:57:49;;;;;;;1.90;1.80;;;18.80;97.50;;;;;;5053037;28;20299;-69
2022/06/07 02:00:17;;;;;;;2.25;2.15;;;18.80;98.20;;;;;;5053003;28;20316;-69
2022/06/07 02:02:44;;;;;;;2.65;2.42;;;18.90;98.60;;;;;;5052820;28;20555;-70
2022/06/07 02:05:11;;;;;;;2.20;2.10;;;18.80;99.60;;;;;;5052881;28;20204;-69
2022/06/07 02:07:38;;;;;;;2.90;2.63;;;18.90;99.90;;;;;;5052717;28;20207;-69
2022/06/07 02:10:06;;;;;;;1.98;1.88;;;18.90;99.90;;;;;;5052894;28;20231;-69
2022/06/07 02:12:34;;;;;;;3.05;2.10;;;19.00;99.80;;;;;;5052726;28;20307;-70
2022/06/07 02:15:03;;;;;;;1.80;1.70;;;19.00;99.80;;;;;;5052861;28;20291;-69
2022/06/07 02:17:30;;;;;;;1.40;1.30;;;18.90;99.90;;;;;;5052762;28;20458;-69
2022/06/07 02:19:57;;;;;;;1.70;1.60;;;18.80;98.80;;;;;;5053981;28;20671;-69
2022/06/07 02:22:23;;;;;;;2.22;1.60;;;18.70;99.60;;;;;;5056063;28;20671;-69
2022/06/07 02:24:50;;;;;;;1.80;1.70;;;18.70;99.60;;;;;;5056197;28;20294;-69
2022/06/07 02:27:20;;;;;;;1.70;1.60;;;18.70;99.20;;;;;;5056390;28;20294;-69
2022/06/07 02:29:52;;;;;;;2.05;1.95;;;18.50;99.30;;;;;;5056231;28;20626;-69
2022/06/07 02:32:22;;;;;;;1.88;1.77;;;18.40;99.90;;;;;;5056163;28;20212;-69
2022/06/07 02:34:52;;;;;;;1.33;1.33;;;18.30;99.90;;;;;;5056314;28;20203;-69
2022/06/07 02:37:19;;;;;;;1.77;1.67;;;18.30;99.90;;;;;;5056198;28;20233;-70
2022/06/07 02:39:46;;;;;;;2.28;2.08;;;18.40;99.90;;;;;;5055800;28;20310;-69
2022/06/07 02:42:16;;;;;;;2.00;1.85;;;18.50;99.90;;;;;;5055958;28;20203;-69
2022/06/07 02:44:43;;;;;;;1.65;1.38;;;18.50;99.90;;;;;;5056143;28;20207;-69
2022/06/07 02:47:11;;;;;;;2.45;1.85;;;18.50;99.90;;;;;;5055730;28;20733;-69
2022/06/07 02:49:38;;;;;;;1.60;1.50;;;18.50;99.90;;;;;;5055585;28;20781;-69
2022/06/07 02:52:06;;;;;;;1.67;1.58;;;18.50;99.80;;;;;;5055705;28;20298;-70
2022/06/07 02:54:33;;;;;;;1.95;1.85;;;18.50;99.90;;;;;;5055644;28;20213;-69
2022/06/07 02:57:00;;;;;;;1.92;1.65;;;18.50;99.30;;;;;;5055859;28;20299;-69
2022/06/07 02:59:27;;;;;;;1.70;1.60;;;18.60;99.30;;;;;;5055663;28;20311;-69
2022/06/07 03:01:53;;;;;;;2.17;1.98;;;18.60;99.80;;;;;;5055467;28;21023;-69
2022/06/07 03:04:22;;;;;;;1.80;1.70;;;18.50;99.90;;;;;;5055323;28;20295;-69
2022/06/07 03:06:49;;;;;;;1.95;1.85;;;18.50;99.90;;;;;;5055870;28;20290;-69
2022/06/07 03:09:16;;;;;;;1.60;1.50;;;18.40;99.90;;;;;;5055199;28;20314;-69
2022/06/07 03:11:43;;;;;;;1.60;1.50;;;18.50;99.90;;;;;;5055610;28;20294;-69
2022/06/07 03:14:10;;;;;;;1.83;1.73;;;18.50;99.90;;;;;;5055068;28;20614;-69
2022/06/07 03:16:37;;;;;;;1.95;1.70;;;18.50;99.90;;;;;;5055469;28;20215;-69
2022/06/07 03:19:04;;;;;;;1.98;1.85;;;18.50;99.90;;;;;;5055344;28;20314;-69
2022/06/07 03:21:32;;;;;;;1.73;1.63;;;18.50;99.90;;;;;;5055104;28;20737;-69
2022/06/07 03:23:59;;;;;;;1.60;1.50;;;18.50;99.90;;;;;;5055188;28;20546;-69
2022/06/07 03:26:26;;;;;;;2.90;1.63;;;18.50;99.90;;;;;;5055153;28;20302;-69
2022/06/07 03:28:53;;;;;;;1.83;1.73;;;18.50;99.90;;;;;;5054852;28;20315;-69
2022/06/07 03:31:20;;;;;;;1.50;1.40;;;18.50;99.90;;;;;;5054487;28;20773;-69
2022/06/07 03:33:48;;;;;;;1.98;1.88;;;18.50;99.90;;;;;;5054778;28;20243;-69
2022/06/07 03:36:18;;;;;;;1.88;1.63;;;18.50;99.90;;;;;;5054961;28;20295;-69
2022/06/07 03:38:47;;;;;;;1.50;1.50;;;18.30;99.90;;;;;;5054747;28;20760;-69
2022/06/07 03:41:18;;;;;;;1.42;1.30;;;18.40;99.90;;;;;;5054965;28;20618;-69
2022/06/07 03:43:45;;;;;;;1.60;1.50;;;18.40;99.90;;;;;;5054828;28;20208;-69
2022/06/07 03:46:13;;;;;;;1.60;1.50;;;18.40;99.80;;;;;;5055371;28;20298;-69
2022/06/07 03:48:41;;;;;;;1.80;1.70;;;18.40;99.80;;;;;;5054586;28;20314;-69
2022/06/07 03:51:08;;;;;;;1.67;1.58;;;18.40;99.90;;;;;;5054810;28;20672;-69
2022/06/07 03:53:36;;;;;;;1.48;1.38;;;18.40;99.90;;;;;;5054211;28;20211;-69
2022/06/07 03:56:05;;;;;;;1.73;1.63;;;18.30;99.90;;;;;;5054718;28;20290;-69
2022/06/07 03:58:33;;;;;;;1.63;1.52;;;18.20;99.90;;;;;;5054381;28;20306;-69
2022/06/07 04:01:01;;;;;;;1.70;1.60;;;18.10;99.90;;;;;;5054676;28;20290;-69
2022/06/07 04:03:29;;;;;;;2.17;1.95;;;18.00;99.90;;;;;;5054128;28;20693;-69
2022/06/07 04:05:56;;;;;;;1.40;1.30;;;17.80;99.90;;;;;;5054508;28;20231;-69
2022/06/07 04:08:25;;;;;;;1.58;1.48;;;17.80;99.90;;;;;;5054301;28;20214;-69
2022/06/07 04:10:54;;;;;;;1.63;1.52;;;17.70;99.90;;;;;;5054430;28;20231;-69
2022/06/07 04:13:26;;;;;;;1.60;1.50;;;17.70;99.90;;;;;;5054259;28;20216;-69
2022/06/07 04:15:53;;;;;;;1.50;1.40;;;17.60;99.90;;;;;;5054563;28;20207;-69
2022/06/07 04:18:20;;;;;;;1.50;1.40;;;17.60;99.90;;;;;;5054156;28;20293;-69
2022/06/07 04:20:48;;;;;;;1.63;1.55;;;17.50;99.90;;;;;;5054220;28;20235;-69
2022/06/07 04:23:16;;;;;;;1.58;1.48;;;17.40;99.90;;;;;;5054070;28;20294;-69
2022/06/07 04:25:43;;;;;;;2.03;1.70;;;17.40;99.90;;;;;;5054187;28;20298;-69
2022/06/07 04:28:11;;;;;;;1.60;1.50;;;17.30;99.90;;;;;;5053885;28;20298;-69
2022/06/07 04:30:42;;;;;;;1.75;1.65;;;17.20;99.90;;;;;;5053748;28;20219;-69
2022/06/07 04:33:09;;;;;;;2.00;1.90;;;17.20;99.90;;;;;;5053715;28;20298;-69
2022/06/07 04:35:36;;;;;;;2.08;1.85;;;17.40;99.90;;;;;;5053975;28;20293;-69
2022/06/07 04:38:03;;;;;;;2.33;2.10;;;17.50;99.90;;;;;;5054456;28;20294;-69
2022/06/07 04:40:30;;;;;;;1.60;1.50;;;17.50;99.90;;;;;;5053648;28;20293;-69
2022/06/07 04:42:57;;;;;;;1.83;1.65;;;17.60;99.90;;;;;;5052802;28;20776;-69
2022/06/07 04:45:24;;;;;;;1.80;1.70;;;17.60;99.90;;;;;;5053760;28;20290;-69
2022/06/07 04:47:52;;;;;;;2.17;1.60;;;17.70;99.90;;;;;;5053704;28;20294;-69
2022/06/07 04:50:19;;;;;;;1.85;1.75;;;17.70;99.90;;;;;;5053691;28;20234;-69
2022/06/07 04:52:47;;;;;;;1.63;1.52;;;17.80;99.90;;;;;;5053234;28;20298;-69
2022/06/07 04:55:15;;;;;;;1.95;1.85;;;17.90;99.90;;;;;;5053736;28;20291;-69
2022/06/07 04:57:42;;;;;;;3.05;1.52;;;18.00;99.90;;;;;;5053688;28;20299;-69
2022/06/07 05:00:13;;;;;;;2.53;1.88;;;18.10;99.90;;;;;;5053296;28;20310;-69
2022/06/07 05:02:40;;;;;;;1.80;1.70;;;18.20;99.90;;;;;;5053251;28;20222;-69
2022/06/07 05:05:09;;;;;;;1.80;1.60;;;18.20;99.90;;;;;;5053659;28;20309;-69
2022/06/07 05:07:37;;;;;;;1.58;1.55;;;18.10;99.90;;;;;;5053387;28;20207;-69
2022/06/07 05:10:05;;;;;;;1.90;1.80;;;18.20;99.90;;;;;;5053488;28;20578;-69
2022/06/07 05:12:32;;;;;;;1.20;1.20;;;18.20;99.90;;;;;;5053232;28;20294;-69
2022/06/07 05:14:59;;;;;;;1.60;1.50;;;18.10;99.90;;;;;;5053362;28;20211;-69
2022/06/07 05:17:27;;;;;;;1.90;1.60;;;18.20;99.90;;;;;;5053526;28;20311;-69
2022/06/07 05:19:53;;;;;;;1.50;1.40;;;18.30;99.90;;;;;;5053114;28;20765;-69
2022/06/07 05:22:22;;;;;;;1.60;1.50;;;18.30;99.90;;;;;;5053185;28;20294;-69
2022/06/07 05:24:48;;;;;;;1.70;1.60;;;18.30;99.90;;;;;;5053305;28;20294;-69
2022/06/07 05:27:20;;;;;;;1.80;1.70;;;18.30;99.90;;;;;;5053260;28;20294;-69
2022/06/07 05:29:49;;;;;;;1.67;1.52;;;18.30;99.90;;;;;;5053093;28;20315;-69
2022/06/07 05:32:16;;;;;;;2.00;1.90;;;18.30;99.90;;;;;;5053148;28;20286;-69
2022/06/07 05:34:44;;;;;;;1.85;1.75;;;18.30;99.90;;;;;;5053288;28;20214;-69
2022/06/07 05:37:15;;;;;;;1.60;1.50;;;18.20;99.90;;;;;;5053334;28;20299;-69
2022/06/07 05:39:44;;;;;;;1.88;1.50;;;18.30;99.90;;;;;;5052984;28;20251;-69
2022/06/07 05:42:12;;;;;;;1.90;1.80;;;18.20;99.90;;;;;;5052784;28;20205;-69
2022/06/07 05:44:39;;;;;;;1.90;1.80;;;18.20;99.90;;;;;;5052979;28;20247;-70
2022/06/07 05:47:07;;;;;;;2.00;1.90;;;18.20;99.90;;;;;;5053050;28;20294;-69
2022/06/07 05:49:34;;;;;;;2.03;1.90;;;18.20;99.90;;;;;;5053013;28;20306;-69
2022/06/07 05:52:01;;;;;;;2.05;1.90;;;18.30;99.90;;;;;;5053135;28;20228;-69
2022/06/07 05:54:29;;;;;;;1.92;1.80;;;18.50;99.90;;;;;;5054911;28;20212;-69
2022/06/07 05:56:57;;;;;;;2.45;2.00;;;18.60;99.90;;;;;;5056994;28;20295;-69
2022/06/07 05:59:24;;;;;;;1.73;1.63;;;18.70;99.90;;;;;;5056919;28;20230;-69
2022/06/07 06:01:51;;;;;;;2.15;2.05;;;18.70;99.90;;;;;;5056904;28;20231;-69
2022/06/07 06:04:18;;;;;;;2.75;1.70;;;18.70;99.90;;;;;;5056639;28;20290;-69
2022/06/07 06:06:45;;;;;;;2.45;1.90;;;18.70;99.90;;;;;;5056762;28;20203;-69
2022/06/07 06:11:57;;;;;;;1.92;1.73;;;18.90;99.90;;;;;;5056690;28;21106;-69
2022/06/07 06:14:24;;;;;;;2.50;2.30;;;18.90;99.90;;;;;;5056206;28;20745;-69
2022/06/07 06:16:52;;;;;;;2.42;2.08;;;18.90;99.90;;;;;;5056512;28;20537;-69
2022/06/07 06:19:20;;;;;;;2.33;2.17;;;18.90;99.90;;;;;;5056319;28;20230;-69
2022/06/07 06:21:48;;;;;;;2.20;2.10;;;19.00;99.90;;;;;;5056515;28;20207;-69
2022/06/07 06:24:17;;;;;;;2.37;2.20;;;19.00;99.90;;;;;;5056050;28;20537;-69
2022/06/07 06:26:44;;;;;;;1.52;1.42;;;19.00;99.90;;;;;;5056436;28;20446;-69
2022/06/07 06:29:13;;;;;;;1.77;1.67;;;19.00;99.90;;;;;;5056168;28;20231;-69
2022/06/07 06:31:41;;;;;;;2.33;1.97;;;19.10;99.90;;;;;;5055998;28;21097;-69
2022/06/07 06:34:08;;;;;;;2.33;1.80;;;19.10;99.90;;;;;;5055831;28;20537;-70
2022/06/07 06:36:35;;;;;;;1.67;1.57;;;19.10;99.90;;;;;;5056279;28;20541;-69
2022/06/07 06:39:02;;;;;;;1.87;1.77;;;18.90;99.90;;;;;;5056097;28;20466;-69
2022/06/07 06:41:32;;;;;;;1.70;1.60;;;18.90;99.90;;;;;;5056161;28;20438;-69
2022/06/07 06:44:01;;;;;;;2.10;2.00;;;19.10;99.90;;;;;;5055939;28;20238;-69
2022/06/07 06:46:31;;;;;;;2.27;1.80;;;19.40;99.90;;;;;;5055794;28;20434;-69
2022/06/07 06:48:58;;;;;;;1.90;1.80;;;19.60;99.90;;;;;;5056006;28;20905;-69
2022/06/07 06:51:27;;;;;;;2.70;2.30;;;19.60;99.90;;;;;;5055869;28;20593;-69
2022/06/07 06:53:57;;;;;;;2.00;1.90;;;19.70;99.90;;;;;;5055610;28;20463;-69
2022/06/07 06:56:24;;;;;;;1.93;1.70;;;19.60;99.90;;;;;;5055684;28;20549;-69
2022/06/07 06:58:52;;;;;;;2.07;1.83;;;19.50;99.90;;;;;;5055658;28;20462;-69
2022/06/07 07:01:22;;;;;;;2.00;1.90;;;19.30;99.90;;;;;;5055458;28;20940;-69
2022/06/07 07:03:51;;;;;;;1.70;1.60;;;19.30;99.90;;;;;;5055408;28;20942;-69
2022/06/07 07:06:18;;;;;;;3.07;2.87;;;19.50;99.90;;;;;;5054832;28;20526;-69
2022/06/07 07:08:47;;;;;;;1.60;1.50;;;19.50;99.90;;;;;;5055541;28;20555;-69
2022/06/07 07:11:17;;;;;;;1.80;1.70;;;19.70;99.90;;;;;;5055266;28;20575;-69
2022/06/07 07:13:45;;;;;;;1.93;1.67;;;19.90;99.90;;;;;;5055096;28;20458;-69
2022/06/07 07:16:15;;;;;;;1.93;1.83;;;20.00;99.90;;;;;;5055512;28;20807;-69
2022/06/07 07:18:42;;;;;;;1.87;1.77;;;20.00;99.90;;;;;;5055155;28;20511;-69
2022/06/07 07:21:14;;;;;;;1.80;1.70;;;20.00;99.80;;;;;;5055427;28;20491;-69
2022/06/07 07:23:41;;;;;;;1.80;1.70;;;19.90;99.40;;;;;;5055060;28;20871;-69
2022/06/07 07:26:12;;;;;;;1.63;1.53;;;19.80;99.00;;;;;;5055228;28;20529;-69
2022/06/07 07:28:41;;;;;;;1.70;1.60;;;19.70;99.50;;;;;;5055252;28;20550;-69
2022/06/07 07:31:12;;;;;;;2.00;1.90;;;19.70;99.10;;;;;;5055207;28;20569;-69
2022/06/07 07:33:39;;;;;;;2.50;1.77;;;19.70;99.50;;;;;;5055228;28;20543;-69
2022/06/07 07:36:07;;;;;;;1.80;1.67;;;19.80;99.60;;;;;;5055016;28;20826;-69
2022/06/07 07:38:36;;;;;;;2.00;1.90;;;19.90;98.90;;;;;;5054926;28;20856;-69
2022/06/07 07:41:04;;;;;;;1.90;1.80;;;20.00;99.90;;;;;;5055093;28;20530;-69
2022/06/07 07:43:31;;;;;;;1.83;1.73;;;19.90;98.90;;;;;;5054747;28;20523;-69
2022/06/07 07:45:58;;;;;;;1.60;1.50;;;19.80;99.90;;;;;;5055033;28;20894;-69
2022/06/07 07:48:25;;;;;;;1.90;1.80;;;20.00;99.90;;;;;;5054936;28;20539;-69
2022/06/07 07:50:53;;;;;;;4.23;1.70;;;20.40;99.90;;;;;;5054862;28;20835;-69
2022/06/07 07:53:20;;;;;;;1.70;1.60;;;21.40;99.10;;;;;;5054380;28;20504;-70
2022/06/07 07:55:49;;;;;;;1.47;1.37;;;22.30;96.40;;;;;;5054746;28;20446;-69
2022/06/07 07:58:18;;;;;;;1.70;1.60;;;22.30;96.00;;;;;;5054657;28;20517;-69
2022/06/07 08:00:47;;;;;;;1.70;1.60;;;22.40;94.90;;;;;;5054430;28;20540;-69
2022/06/07 08:03:15;;;;;;;2.20;2.00;;;22.60;95.40;;;;;;5054509;28;20533;-70
2022/06/07 08:05:42;;;;;;;1.60;1.50;;;22.30;95.90;;;;;;5054477;28;20481;-71
2022/06/07 08:08:09;;;;;;;2.80;1.63;;;22.00;96.80;;;;;;5054421;28;20449;-69
2022/06/07 08:10:37;;;;;;;1.70;1.60;;;21.80;95.30;;;;;;5054515;28;20504;-70
2022/06/07 08:13:08;;;;;;;2.47;1.40;;;21.60;94.90;;;;;;5054136;28;20540;-69
2022/06/07 08:15:35;;;;;;;1.97;1.87;;;21.20;93.50;;;;;;5054423;28;20472;-69
2022/06/07 08:18:04;;;;;;;2.43;1.80;;;20.90;94.60;;;;;;5054345;28;20540;-69
2022/06/07 08:20:35;;;;;;;1.57;1.47;;;20.90;94.60;;;;;;5054129;28;20478;-69
2022/06/07 08:23:03;;;;;;;1.70;1.60;;;20.90;95.80;;;;;;5054118;28;20846;-69
2022/06/07 08:25:30;;;;;;;1.90;1.80;;;20.90;94.20;;;;;;5054198;28;20446;-69
2022/06/07 08:27:57;;;;;;;1.70;1.60;;;21.00;96.40;;;;;;5054151;28;20445;-70
2022/06/07 08:30:25;;;;;;;1.57;1.50;;;21.20;96.40;;;;;;5054118;28;20552;-69
2022/06/07 08:32:52;;;;;;;1.93;1.80;;;21.40;96.40;;;;;;5053859;28;20486;-69
2022/06/07 08:38:05;;;;;;;4.40;1.90;;;21.40;95.40;;;;;;5054055;28;20448;-69
2022/06/07 08:40:35;;;;;;;1.60;1.50;;;21.10;94.80;;;;;;5053994;28;20852;-69
2022/06/07 08:43:08;;;;;;;1.50;1.40;;;21.10;96.10;;;;;;5053559;28;20525;-70
2022/06/07 08:45:40;;;;;;;2.80;1.80;;;21.70;96.30;;;;;;5053611;28;20541;-70
2022/06/07 08:48:12;;;;;;;1.50;1.40;;;22.00;94.40;;;;;;5053563;28;20446;-70
2022/06/07 08:50:42;;;;;;;1.23;1.20;;;22.60;92.40;;;;;;5053870;28;20435;-69
2022/06/07 08:53:14;;;;;;;1.53;1.43;;;22.60;91.40;;;;;;5053111;28;20481;-70
2022/06/07 08:55:44;;;;;;;1.60;1.50;;;22.50;90.50;;;;;;5053718;28;20532;-70
2022/06/07 08:58:17;;;;;;;1.70;1.60;;;22.70;90.80;;;;;;5053674;28;20447;-70
2022/06/07 09:00:49;;;;;;;1.40;1.40;;;23.00;91.80;;;;;;5053432;28;20517;-70
2022/06/07 09:03:38;;;;;;;2.07;1.87;;;23.50;89.40;;;;;;5053383;28;20859;-70
2022/06/07 09:06:07;;;;;;;1.60;1.50;;;24.50;85.20;;;;;;5053325;28;20958;-70
2022/06/07 09:08:39;;;;;;;1.53;1.43;;;24.70;84.60;;;;;;5053472;28;20828;-70
2022/06/07 09:13:55;;;;;;;1.67;1.50;;;25.90;81.50;;;;;;5053404;28;20433;-70
2022/06/07 09:16:23;;;;;;;1.80;1.70;;;26.90;79.10;;;;;;5053500;28;20536;-70
2022/06/07 09:18:52;;;;;;;1.20;1.20;;;28.20;72.40;;;;;;5053501;28;21043;-70
2022/06/07 09:21:27;;;;;;;1.67;1.57;;;28.80;70.90;;;;;;5053426;28;20495;-70
2022/06/07 09:23:56;;;;;;;8.70;7.20;;;29.90;66.40;;;;;;5053282;28;20849;-70
2022/06/07 09:26:27;;;;;;;1.70;1.60;;;30.20;63.20;;;;;;5053385;28;20805;-70
2022/06/07 09:29:06;;;;;;;1.70;1.60;;;30.00;59.20;;;;;;5054737;28;20472;-70
2022/06/07 09:31:39;;;;;;;1.70;1.60;;;28.50;61.30;;;;;;5057534;28;20569;-70
2022/06/07 09:34:09;;;;;;;1.83;1.73;;;27.00;62.00;;;;;;5057192;28;20529;-70
2022/06/07 09:36:40;;;;;;;1.70;1.60;;;25.90;65.80;;;;;;5057445;28;20445;-70
2022/06/07 09:39:15;;;;;;;1.37;1.27;;;25.00;70.50;;;;;;5057225;28;20803;-70
2022/06/07 09:41:46;;;;;;;2.20;1.83;;;24.20;76.00;;;;;;5057345;28;20460;-70
2022/06/07 09:44:21;;;;;;;1.70;1.60;;;23.70;78.80;;;;;;5057119;28;20545;-70
2022/06/07 09:46:57;;;;;;;2.07;1.87;;;23.30;83.90;;;;;;5057085;28;20456;-70
2022/06/07 09:49:27;;;;;;;2.93;2.30;;;23.00;84.30;;;;;;5057010;28;20473;-69
2022/06/07 09:51:54;;;;;;;2.50;2.40;;;22.60;90.10;;;;;;5057000;28;20568;-68
2022/06/07 09:54:23;;;;;;;2.90;2.70;;;22.20;93.10;;;;;;5056620;28;20839;-69
2022/06/07 09:57:06;;;;;;;3.17;2.53;;;21.90;93.60;;;;;;5056993;28;20448;-69
2022/06/07 09:59:46;;;;;;;2.50;2.30;;;21.80;93.10;;;;;;5056697;28;20555;-69
2022/06/07 10:02:36;;;;;;;2.20;2.10;;;22.10;93.80;;;;;;5056815;28;20829;-69
2022/06/07 10:05:15;;;;;;;1.93;1.83;;;24.00;90.90;;;;;;5056752;28;20446;-69
2022/06/07 10:07:50;;;;;;;2.43;2.07;;;24.50;84.90;;;;;;5056853;28;20538;-69
2022/06/07 10:10:26;;;;;;;2.33;2.13;;;24.60;85.40;;;;;;5056463;28;20468;-69
2022/06/07 10:13:05;;;;;;;2.20;2.10;;;24.20;87.40;;;;;;5056265;28;20525;-69
2022/06/07 10:15:40;;;;;;;2.10;2.00;;;23.70;87.20;;;;;;5057211;28;20533;-69
2022/06/07 10:18:23;;;;;;;2.10;1.90;;;23.30;90.20;;;;;;5056605;28;20448;-69
2022/06/07 10:21:16;;;;;;;2.60;2.40;;;22.80;91.60;;;;;;5056342;28;20529;-69
2022/06/07 10:24:01;;;;;;;2.20;2.10;;;22.80;93.50;;;;;;5056383;28;20437;-68
2022/06/07 10:26:38;;;;;;;2.07;1.97;;;22.70;91.00;;;;;;5056456;28;20533;-68
2022/06/07 10:29:17;;;;;;;2.43;2.30;;;22.80;91.40;;;;;;5056258;28;20552;-69
2022/06/07 10:31:51;;;;;;;2.23;2.13;;;22.90;90.20;;;;;;5056324;28;20461;-68
2022/06/07 10:34:30;;;;;;;2.30;2.10;;;22.80;90.20;;;;;;5056187;28;20451;-69
2022/06/07 10:37:06;;;;;;;2.27;2.17;;;22.60;90.40;;;;;;5056137;28;20999;-69
2022/06/07 10:39:48;;;;;;;2.30;2.10;;;22.50;92.20;;;;;;5055519;28;20472;-69
2022/06/07 10:42:29;;;;;;;2.30;2.20;;;22.60;92.30;;;;;;5055762;28;20465;-68
2022/06/07 10:45:03;;;;;;;3.83;3.10;;;22.40;91.70;;;;;;5056151;28;20446;-69
2022/06/07 10:47:35;;;;;;;2.30;2.20;;;22.40;93.00;;;;;;5056169;28;20433;-69
2022/06/07 10:50:14;;;;;;;2.50;2.30;;;22.30;92.20;;;;;;5055924;28;20556;-69
2022/06/07 10:52:48;;;;;;;2.10;2.00;;;22.20;92.20;;;;;;5055337;28;20847;-69
2022/06/07 10:55:21;;;;;;;2.20;2.00;;;22.20;91.10;;;;;;5055955;28;20474;-69
2022/06/07 10:58:00;;;;;;;2.73;1.90;;;22.10;92.20;;;;;;5055889;28;20532;-68
2022/06/07 11:00:36;;;;;;;2.20;2.10;;;22.00;91.70;;;;;;5055510;28;20527;-68
2022/06/07 11:03:21;;;;;;;2.47;2.30;;;21.90;91.60;;;;;;5055626;28;20865;-68
2022/06/07 11:11:24;;;;;;;2.57;2.37;;;21.90;95.60;;;;;;5055721;28;20425;-69
2022/06/07 11:14:05;;;;;;;2.30;2.03;;;21.90;93.80;;;;;;5055324;28;20573;-69
2022/06/07 11:16:40;;;;;;;1.93;1.83;;;21.90;93.30;;;;;;5055636;28;20520;-70
2022/06/07 11:19:10;;;;;;;2.23;2.03;;;22.10;94.40;;;;;;5055359;28;20553;-70
2022/06/07 11:21:42;;;;;;;2.17;1.97;;;22.30;94.10;;;;;;5055440;28;20455;-70
2022/06/07 11:24:20;;;;;;;2.20;2.07;;;22.40;93.10;;;;;;5055255;28;20442;-70
2022/06/07 11:27:19;;;;;;;2.10;2.00;;;22.40;92.00;;;;;;5055250;28;20467;-70
2022/06/07 11:29:47;;;;;;;1.60;1.60;;;22.10;90.20;;;;;;4993732;28;20543;-70
2022/06/07 11:32:48;;;;;;;1.40;1.40;;;22.10;93.80;;;;;;5041491;28;20876;-69
2022/06/07 11:35:45;;;;;;;1.50;1.50;;;22.20;90.30;;;;;;5055178;28;20525;-70
2022/06/07 11:38:32;;;;;;;1.80;1.70;;;22.40;89.20;;;;;;5054908;28;20522;-70
2022/06/07 11:44:00;;;;;;;1.63;1.40;;;23.10;88.70;;;;;;5054842;28;20420;-70
2022/06/07 11:46:40;;;;;;;1.27;1.27;;;23.40;82.50;;;;;;5054905;28;20443;-70
2022/06/07 11:49:48;;;;;;;1.80;1.70;;;23.50;88.00;;;;;;5054910;28;20562;-70
2022/06/07 11:52:24;;;;;;;1.53;1.43;;;23.50;79.80;;;;;;5049674;28;20511;-70
2022/06/07 11:54:55;;;;;;;1.70;1.60;;;23.20;83.20;;;;;;5054719;28;20440;-70
2022/06/07 11:57:35;;;;;;;1.50;1.40;;;23.00;79.10;;;;;;5055169;28;20532;-70
2022/06/07 12:00:23;;;;;;;2.47;1.53;;;22.90;81.00;;;;;;5054709;28;20469;-69
2022/06/07 12:03:13;;;;;;;19.70;15.00;;;22.80;84.20;;;;;;5054233;28;20442;-69
2022/06/07 12:05:43;;;;;;;2.13;2.03;;;22.60;88.30;;;;;;5054378;28;20538;-69
2022/06/07 12:08:19;;;;;;;1.70;1.60;;;22.40;85.60;;;;;;5054199;28;20534;-69
2022/06/07 12:11:01;;;;;;;1.70;1.60;;;22.40;84.40;;;;;;5055424;28;20553;-69
2022/06/07 12:13:52;;;;;;;1.70;1.60;;;22.40;85.60;;;;;;5054080;28;20564;-69
2022/06/07 12:16:27;;;;;;;1.97;1.80;;;22.50;85.30;;;;;;5054089;28;20922;-69
2022/06/07 12:18:55;;;;;;;2.23;2.13;;;22.40;84.80;;;;;;5054555;28;20465;-69
2022/06/07 12:21:23;;;;;;;1.90;1.80;;;22.30;88.20;;;;;;5054382;28;20533;-69
2022/06/07 12:23:53;;;;;;;2.20;2.00;;;22.40;87.10;;;;;;5053749;28;20529;-69
2022/06/07 12:26:26;;;;;;;1.60;1.50;;;22.40;91.00;;;;;;5054109;28;20529;-69
2022/06/07 12:28:56;;;;;;;2.20;2.00;;;22.50;90.10;;;;;;5054476;28;20549;-70
2022/06/07 12:31:26;;;;;;;41.17;17.17;;;22.60;90.30;;;;;;5054102;28;20529;-70
2022/06/07 12:33:55;;;;;;;2.40;2.00;;;22.70;90.40;;;;;;5053785;28;20999;-69
2022/06/07 12:36:25;;;;;;;1.73;1.63;;;22.80;90.20;;;;;;5053932;28;20537;-70
2022/06/07 12:38:52;;;;;;;2.13;1.93;;;22.70;87.00;;;;;;5053863;28;20977;-69
2022/06/07 12:41:24;;;;;;;2.17;1.90;;;22.60;90.20;;;;;;5053928;28;20533;-69
2022/06/07 12:43:53;;;;;;;1.83;1.73;;;22.30;88.10;;;;;;5053508;28;20422;-69
2022/06/07 12:46:22;;;;;;;2.50;2.37;;;22.20;89.30;;;;;;5053834;28;20602;-69
2022/06/07 12:48:51;;;;;;;2.30;1.83;;;22.10;90.90;;;;;;5053463;28;20497;-69
2022/06/07 12:51:22;;;;;;;2.40;2.20;;;22.10;90.00;;;;;;5053535;28;20484;-69
2022/06/07 12:53:51;;;;;;;1.80;1.70;;;22.10;90.20;;;;;;5053333;28;20513;-69
2022/06/07 12:56:21;;;;;;;2.30;2.07;;;22.10;89.80;;;;;;5053743;28;20851;-70
2022/06/07 12:58:52;;;;;;;1.60;1.50;;;22.20;91.30;;;;;;5053728;28;20780;-70
2022/06/07 13:01:25;;;;;;;2.00;1.90;;;22.40;89.70;;;;;;5053699;28;20436;-69
2022/06/07 13:03:56;;;;;;;2.07;1.97;;;22.40;89.30;;;;;;5052558;28;20450;-70
2022/06/07 13:06:23;;;;;;;2.30;2.20;;;22.50;90.60;;;;;;5053908;28;20998;-70
2022/06/07 13:09:02;;;;;;;11.37;10.23;;;22.50;90.80;;;;;;5053447;28;20466;-70
2022/06/07 13:11:34;;;;;;;1.80;1.70;;;22.50;90.00;;;;;;5053271;28;20488;-70
2022/06/07 13:14:02;;;;;;;2.17;2.07;;;22.30;90.10;;;;;;5053355;28;20817;-69
2022/06/07 13:16:39;;;;;;;2.03;1.80;;;22.20;89.90;;;;;;5053226;28;20488;-69
2022/06/07 13:19:21;;;;;;;2.20;2.00;;;22.10;90.00;;;;;;5053452;28;20556;-69
2022/06/07 13:22:02;;;;;;;3.90;2.27;;;22.10;90.30;;;;;;5053476;28;20646;-70
2022/06/07 13:24:40;;;;;;;1.53;1.43;;;22.10;90.20;;;;;;5053505;28;20438;-70